createdAt,value
2023-04-15T12:13:50.796Z,69.70
2023-04-15T12:16:21.068Z,69.80
2023-04-15T12:18:56.357Z,69.81
2023-04-15T12:21:24.867Z,69.64
2023-04-15T12:24:04.288Z,69.82
2023-04-15T12:26:43.672Z,69.82
2023-04-15T12:29:12.251Z,69.71
2023-04-15T12:31:49.028Z,69.71
2023-04-15T12:34:16.076Z,69.61
2023-04-15T12:36:43.738Z,69.53
2023-04-15T12:39:10.783Z,69.56
2023-04-15T12:41:37.609Z,69.65
2023-04-15T12:44:04.588Z,69.43
2023-04-15T12:46:31.734Z,69.63
2023-04-15T12:48:58.807Z,69.68
2023-04-15T12:51:26.634Z,69.48
2023-04-15T12:53:53.464Z,69.47
2023-04-15T12:56:20.369Z,69.58
2023-04-15T12:58:47.180Z,69.54
2023-04-15T13:01:14.091Z,69.68
2023-04-15T13:03:41.394Z,69.77
2023-04-15T13:06:08.424Z,69.52
2023-04-15T13:08:36.956Z,69.75
2023-04-15T13:11:07.467Z,69.79
2023-04-15T13:13:34.571Z,69.52
2023-04-15T13:16:01.802Z,69.76
2023-04-15T13:18:28.736Z,69.71
2023-04-15T13:20:56.780Z,69.64
2023-04-15T13:23:23.609Z,69.60
2023-04-15T13:25:50.570Z,69.56
2023-04-15T13:28:17.433Z,69.52
2023-04-15T13:30:44.480Z,69.43
2023-04-15T13:33:11.940Z,69.33
2023-04-15T13:35:39.922Z,69.29
2023-04-15T13:38:06.750Z,69.25
2023-04-15T13:40:33.604Z,68.97
2023-04-15T13:43:00.565Z,69.03
2023-04-15T13:45:27.764Z,68.83
2023-04-15T13:47:56.494Z,68.91
2023-04-15T13:50:23.811Z,68.78
2023-04-15T13:52:50.799Z,68.77
2023-04-15T13:55:20.345Z,68.77
2023-04-15T13:57:47.734Z,68.63
2023-04-15T14:00:14.938Z,68.34
2023-04-15T14:02:42.732Z,68.39
2023-04-15T14:05:10.641Z,68.02
2023-04-15T14:07:37.566Z,68.08
2023-04-15T14:10:05.172Z,67.78
2023-04-15T14:12:32.118Z,67.61
2023-04-15T14:14:59.027Z,67.57
2023-04-15T14:17:26.058Z,67.46
2023-04-15T14:19:54.367Z,67.40
2023-04-15T14:22:21.553Z,67.63
2023-04-15T14:24:49.891Z,67.77
2023-04-15T14:27:16.979Z,67.59
2023-04-15T14:29:43.950Z,67.48
2023-04-15T14:32:12.934Z,67.53
2023-04-15T14:34:40.633Z,67.84
2023-04-15T14:37:07.812Z,67.70
2023-04-15T14:39:34.942Z,67.61
2023-04-15T14:42:02.109Z,67.90
2023-04-15T14:46:58.935Z,68.06
2023-04-15T14:49:26.407Z,68.14
2023-04-15T14:51:54.277Z,67.98
2023-04-15T14:54:22.494Z,68.19
2023-04-15T14:56:50.032Z,68.27
2023-04-15T14:59:17.383Z,68.21
2023-04-15T15:01:44.808Z,68.19
2023-04-15T15:04:12.428Z,68.08
2023-04-15T15:06:40.246Z,67.70
2023-04-15T15:09:07.363Z,67.96
2023-04-15T15:11:34.526Z,68.09
2023-04-15T15:14:01.595Z,68.02
2023-04-15T15:16:29.694Z,68.05
2023-04-15T15:18:56.845Z,68.04
2023-04-15T15:21:24.371Z,67.94
2023-04-15T15:23:51.764Z,68.01
2023-04-15T15:26:19.695Z,68.12
2023-04-15T15:28:47.417Z,68.36
2023-04-15T15:31:15.014Z,68.37
2023-04-15T15:33:43.224Z,68.45
2023-04-15T15:36:11.295Z,68.30
2023-04-15T15:38:41.012Z,68.38
2023-04-15T15:41:10.467Z,68.53
2023-04-15T15:43:37.715Z,68.52
2023-04-15T15:46:04.992Z,68.54
2023-04-15T15:48:33.109Z,68.40
2023-04-15T15:51:00.563Z,68.59
2023-04-15T15:53:28.241Z,68.61
2023-04-15T15:55:55.498Z,68.54
2023-04-15T15:58:22.432Z,68.51
2023-04-15T16:00:49.776Z,68.68
2023-04-15T16:03:17.020Z,68.65
2023-04-15T16:05:44.482Z,68.57
2023-04-15T16:08:12.636Z,68.31
2023-04-15T16:10:39.606Z,68.50
2023-04-15T16:13:07.082Z,68.58
2023-04-15T16:15:35.012Z,68.81
2023-04-15T16:18:02.406Z,68.51
2023-04-15T16:20:32.237Z,68.67
2023-04-15T16:22:59.338Z,68.40
2023-04-15T16:25:26.582Z,68.67
2023-04-15T16:27:59.432Z,68.63
2023-04-15T16:30:30.940Z,68.59
2023-04-15T16:32:58.062Z,68.58
2023-04-15T16:35:25.198Z,68.75
2023-04-15T16:37:52.606Z,68.61
2023-04-15T16:40:20.109Z,68.64
2023-04-15T16:42:47.075Z,68.69
2023-04-15T16:45:14.416Z,68.74
2023-04-15T16:47:43.397Z,68.85
2023-04-15T16:50:12.037Z,69.15
2023-04-15T16:52:40.095Z,69.03
2023-04-15T16:55:07.269Z,69.29
2023-04-15T16:58:00.946Z,69.13
2023-04-15T17:00:21.694Z,69.30
2023-04-15T17:02:48.959Z,69.22
2023-04-15T17:05:16.711Z,69.19
2023-04-15T17:07:45.286Z,69.41
2023-04-15T17:10:14.068Z,69.18
2023-04-15T17:12:41.991Z,69.37
2023-04-15T17:15:09.561Z,69.45
2023-04-15T17:17:38.555Z,69.36
2023-04-15T17:20:06.312Z,69.43
2023-04-15T17:22:34.410Z,69.75
2023-04-15T17:25:03.485Z,69.76
2023-04-15T17:27:34.605Z,69.88
2023-04-15T17:30:10.108Z,69.61
2023-04-15T17:32:58.089Z,69.73
2023-04-15T17:35:45.166Z,69.84
2023-04-15T17:38:34.891Z,69.81
2023-04-15T17:41:22.160Z,70.03
2023-04-15T17:44:09.165Z,69.84
2023-04-15T17:46:56.108Z,69.94
2023-04-15T17:49:44.750Z,69.87
2023-04-15T17:52:31.849Z,70.04
2023-04-15T17:55:18.950Z,69.76
2023-04-15T17:58:06.553Z,69.70
2023-04-15T18:00:53.431Z,69.88
2023-04-15T18:03:40.860Z,70.18
2023-04-15T18:06:28.132Z,70.30
2023-04-15T18:09:16.194Z,70.32
2023-04-15T18:12:07.762Z,70.13
2023-04-15T18:14:54.737Z,70.08
2023-04-15T18:17:41.709Z,70.07
2023-04-15T18:20:17.048Z,70.24
2023-04-15T18:22:45.553Z,70.27
2023-04-15T18:25:12.888Z,70.34
2023-04-15T18:27:40.311Z,70.46
2023-04-15T18:30:11.735Z,70.37
2023-04-15T18:32:40.410Z,70.57
2023-04-15T18:35:08.108Z,70.68
2023-04-15T18:37:35.152Z,70.65
2023-04-15T18:40:02.467Z,70.60
2023-04-15T18:42:29.507Z,70.55
2023-04-15T18:44:56.580Z,70.66
2023-04-15T18:47:27.281Z,70.81
2023-04-15T18:49:54.378Z,70.98
2023-04-15T18:52:21.808Z,70.73
2023-04-15T18:54:49.403Z,70.81
2023-04-15T18:57:23.683Z,70.81
2023-04-15T18:59:58.135Z,70.63
2023-04-15T19:02:28.533Z,70.63
2023-04-15T19:04:56.234Z,70.51
2023-04-15T19:07:23.509Z,70.49
2023-04-15T19:09:50.912Z,70.72
2023-04-15T19:12:17.925Z,70.63
2023-04-15T19:14:45.335Z,70.68
2023-04-15T19:17:12.591Z,70.58
2023-04-15T19:19:39.649Z,70.54
2023-04-15T19:22:06.992Z,70.64
2023-04-15T19:24:34.076Z,70.69
2023-04-15T19:27:03.373Z,70.76
2023-04-15T19:29:30.933Z,70.95
2023-04-15T19:31:57.995Z,70.79
2023-04-15T19:34:25.707Z,70.82
2023-04-15T19:36:54.727Z,70.76
2023-04-15T19:39:23.075Z,70.66
2023-04-15T19:41:50.129Z,70.69
2023-04-15T19:44:17.233Z,70.91
2023-04-15T19:46:45.209Z,70.95
2023-04-15T19:49:12.672Z,71.03
2023-04-15T19:51:39.808Z,70.99
2023-04-15T19:54:07.245Z,70.75
2023-04-15T19:56:34.492Z,70.82
2023-04-15T19:59:02.460Z,70.93
2023-04-15T20:01:29.739Z,70.92
2023-04-15T20:03:56.911Z,70.85
2023-04-15T20:06:27.104Z,70.75
2023-04-15T20:08:54.688Z,71.01
2023-04-15T20:11:22.380Z,70.92
2023-04-15T20:13:49.486Z,71.02
2023-04-15T20:16:16.476Z,70.86
2023-04-15T20:18:43.862Z,71.08
2023-04-15T20:21:11.637Z,71.13
2023-04-15T20:23:41.043Z,71.13
2023-04-15T20:26:08.397Z,71.00
2023-04-15T20:28:35.535Z,71.19
2023-04-15T20:31:02.593Z,71.03
2023-04-15T20:33:29.637Z,71.15
2023-04-15T20:35:57.920Z,71.04
2023-04-15T20:38:24.866Z,71.23
2023-04-15T20:40:51.779Z,71.18
2023-04-15T20:43:18.782Z,71.14
2023-04-15T20:45:45.755Z,71.38
2023-04-15T20:48:12.709Z,71.36
2023-04-15T20:50:39.562Z,71.31
2023-04-15T20:53:06.471Z,71.41
2023-04-15T20:55:34.773Z,71.39
2023-04-15T20:58:01.727Z,71.24
2023-04-15T21:00:28.869Z,71.15
2023-04-15T21:02:55.889Z,71.15
2023-04-15T21:05:23.012Z,71.19
2023-04-15T21:07:50.136Z,71.28
2023-04-15T21:10:17.152Z,71.32
2023-04-15T21:12:44.131Z,71.25
2023-04-15T21:15:11.397Z,71.46
2023-04-15T21:17:38.681Z,71.46
2023-04-15T21:20:06.671Z,71.30
2023-04-15T21:22:33.718Z,71.32
2023-04-15T21:25:00.586Z,71.25
2023-04-15T21:27:27.560Z,71.35
2023-04-15T21:29:54.367Z,70.96
2023-04-15T21:32:21.319Z,71.22
2023-04-15T21:34:48.241Z,71.30
2023-04-15T21:37:15.157Z,71.29
2023-04-15T21:39:42.067Z,71.04
2023-04-15T21:42:09.037Z,71.16
2023-04-15T21:44:35.969Z,71.09
2023-04-15T21:47:02.922Z,70.99
2023-04-15T21:49:30.049Z,71.16
2023-04-15T21:52:01.367Z,71.26
2023-04-15T21:54:28.677Z,71.04
2023-04-15T21:56:55.520Z,71.07
2023-04-15T21:59:22.309Z,71.08
2023-04-15T22:01:49.373Z,71.19
2023-04-15T22:04:16.597Z,71.07
2023-04-15T22:06:43.534Z,70.99
2023-04-15T22:09:13.991Z,71.22
2023-04-15T22:11:41.594Z,71.15
2023-04-15T22:14:09.282Z,71.12
2023-04-15T22:16:36.309Z,70.94
2023-04-15T22:19:03.994Z,71.23
2023-04-15T22:21:32.115Z,71.14
2023-04-15T22:24:35.075Z,71.07
2023-04-15T22:26:45.801Z,71.10
2023-04-15T22:29:13.013Z,71.13
2023-04-15T22:31:40.077Z,70.96
2023-04-15T22:34:07.090Z,70.86
2023-04-15T22:36:34.044Z,70.84
2023-04-15T22:39:01.144Z,71.07
2023-04-15T22:41:28.002Z,70.97
2023-04-15T22:43:54.894Z,70.80
2023-04-15T22:46:21.865Z,70.96
2023-04-15T22:48:48.806Z,70.76
2023-04-15T22:51:22.245Z,70.96
2023-04-15T22:53:50.098Z,70.76
2023-04-15T22:56:20.815Z,70.74
2023-04-15T22:58:48.599Z,70.96
2023-04-15T23:01:19.381Z,70.80
2023-04-15T23:03:57.095Z,70.82
2023-04-15T23:06:36.258Z,70.74
2023-04-15T23:09:03.233Z,70.92
2023-04-15T23:11:30.340Z,70.65
2023-04-15T23:13:57.342Z,70.90
2023-04-15T23:16:24.282Z,70.61
2023-04-15T23:18:51.173Z,70.90
2023-04-15T23:21:18.128Z,70.79
2023-04-15T23:23:45.044Z,70.67
2023-04-15T23:26:11.880Z,70.68
2023-04-15T23:28:38.791Z,70.92
2023-04-15T23:31:06.993Z,70.77
2023-04-15T23:33:34.095Z,70.80
2023-04-15T23:36:00.983Z,70.79
2023-04-15T23:38:27.797Z,70.68
2023-04-15T23:40:54.622Z,70.87
2023-04-15T23:43:21.541Z,70.90
2023-04-15T23:45:48.435Z,70.95
2023-04-15T23:48:15.304Z,70.85
2023-04-15T23:50:42.238Z,70.65
2023-04-15T23:53:09.086Z,70.95
2023-04-15T23:55:35.939Z,70.83
2023-04-15T23:58:02.858Z,70.78
